MMTC

Francisco Sarabia International Airport

Torreón, Mexico
TAF MMTC 150452Z 1506/1606 00000KT P6SM SKC FM151800 06010KT P6SM SKC FM160200 08005KT P6SM SKC
Issued Valid From Valid To
Nov-15 @ 04:52 UTC
(8 hours ago)
Nov-15 @ 06:00 UTC
(7 hours ago)
Nov-16 @ 06:00 UTC
(in 17 hours)
Nov-15 @ 06:00 to Nov-15 @ 18:00
TAF MMTC 150452Z 1506/1606 00000KT P6SM SKC
Visibility Clouds
Greater than 6 miles
  • Clear skies
From Nov-15 @ 18:00 to Nov-16 @ 02:00
FM151800 06010KT P6SM SKC
Wind Visibility Clouds
60° at 10 knots Greater than 6 miles
  • Clear skies
From Nov-16 @ 02:00 to Nov-16 @ 06:00
FM160200 08005KT P6SM SKC
Wind Visibility Clouds
80° at 5 knots Greater than 6 miles
  • Clear skies
TAF MMTC 150452Z 1506/1606 00000KT P6SM SKC FM151800 06010KT P6SM SKC FM160200 08005KT P6SM SKC
Issued Nov-15 @ 04:52 UTC
(8 hours ago)
Valid From Nov-15 @ 06:00 UTC
(7 hours ago)
Valid To Nov-16 @ 06:00 UTC
(in 17 hours)
Nov-15 @ 06:00 - Nov-15 @ 18:00
Clouds
  • Clear skies
From Nov-15 @ 18:00 - Nov-16 @ 02:00
Wind Visibility
60° at 10 knots Greater than 6 miles
Clouds
  • Clear skies
From Nov-16 @ 02:00 - Nov-16 @ 06:00
Wind Visibility
80° at 5 knots Greater than 6 miles
Clouds
  • Clear skies